Univ of New Mexico, New Mexico
Current Conditions -  °F | °C
As of 9:52 AM on Thursday 30 Oct 2014 (Local Time) from KABQ Reporting Station
Clear Clear  
Wind Chill: 53°   Ceiling: Unl
Heat Index: 53°   Visibility: 10mi
Dew Point: 14°   Wind: 10mph
Humidity: 21%   Direction: 340°NNW
Pressure: 30.36"   Gusts: NA
Location:  35.0806°N, 106.618°W
Report Text: KABQ 301552Z 34009KT 10SM CLR 12/M10 A3036 RMK AO2 SLP241 T01171100
Loading
Personal Weather Stations






























Interactive Weather Map
Tropical Storm Tracking
New forecast layout! Learn more

10-Day Weather Forecast

Advertisements
Track Severe Weather on mobile